Latest Weather Observations for Urandangi

IDQ60801

Issued at 7:02 am EST Monday 2 February 2015 (issued every 30 minutes, with the page automatically refreshed every 10 minutes)

About weather observations | Map of weather stations | Latest weather observations for QLD | Other Formats
Station Details ID: 037058 Name: URANDANGI AERODROME Lat: -21.60 Lon: 138.37 Height: 178.6 m
Data from the previous 72 hours. | See also: Recent months at Urandangi
Date/Time
EST
Temp
°C
App
Temp
°C
Dew
Point
Rel
Hum
%
Delta-T
°C
Wind Press
QNH
hPa
Press
MSL
hPa
Rain
since 9 am
mm
Dir
 
Spd
km/h
Gust
km/h
Spd
kts
Gust
kts
02/07:00am 19.9 17.2 2.7 32 8.1 ESE 6 6 3 3 1011.0 1009.7 0.0
02/06:30am 19.0 16.1 2.8 34 7.6 S 7 7 4 4 1010.5 1009.2 0.0
02/06:00am 18.7 16.0 2.5 34 7.5 S 6 6 3 3 1010.2 1008.9 0.0
02/05:30am 18.7 16.4 2.9 35 7.4 S 4 6 2 3 1009.9 1008.6 0.0
02/05:00am 18.3 15.4 2.6 35 7.3 S 7 7 4 4 1009.6 1008.3 0.0
02/04:30am 18.9 16.7 3.1 35 7.4 E 4 6 2 3 1009.4 1008.1 0.0
02/04:00am 19.3 17.4 3.1 34 7.7 E 2 4 1 2 1009.3 1008.0 0.0
02/03:30am 20.4 17.6 1.8 29 8.6 E 6 7 3 4 1009.2 1007.9 0.0
02/03:00am 21.4 18.5 1.7 27 9.2 E 6 7 3 4 1009.1 1007.8 0.0
02/02:30am 21.7 18.7 1.9 27 9.3 ESE 7 9 4 5 1009.0 1007.7 0.0
02/02:00am 21.6 18.6 0.8 25 9.6 SE 6 6 3 3 1008.9 1007.6 0.0
02/01:30am 22.1 19.0 1.2 25 9.7 SE 7 9 4 5 1009.2 1007.9 0.0
02/01:00am 22.8 19.8 0.6 23 10.3 SSE 6 6 3 3 1009.5 1008.2 0.0
02/12:30am 23.9 20.7 0.9 22 10.8 SSE 7 11 4 6 1009.6 1008.3 0.0
02/12:00am 24.3 20.7 0.6 21 11.1 SSE 9 11 5 6 1009.8 1008.5 0.0
 
Date/Time
EST
Temp
°C
App
Temp
°C
Dew
Point
Rel
Hum
%
Delta-T
°C
Wind Press
QNH
hPa
Press
MSL
hPa
Rain
since 9 am
mm
Dir
 
Spd
km/h
Gust
km/h
Spd
kts
Gust
kts
01/11:30pm 24.4 20.5 1.3 22 10.9 SE 11 13 6 7 1009.7 1008.4 0.0
01/11:00pm 25.0 21.1 1.2 21 11.3 SE 11 13 6 7 1009.5 1008.2 0.0
01/10:30pm 26.0 22.0 0.6 19 12.0 SE 11 13 6 7 1009.3 1008.0 0.0
01/10:00pm 26.6 22.2 0.4 18 12.4 SE 13 13 7 7 1008.9 1007.6 0.0
01/09:30pm 27.0 23.0 0.7 18 12.5 SE 11 13 6 7 1008.5 1007.2 0.0
01/09:00pm 29.0 24.5 -0.2 15 13.9 SSE 13 15 7 8 1008.3 1007.0 0.0
01/08:30pm 29.6 25.4 -0.7 14 14.4 SSE 11 13 6 7 1008.0 1006.7 0.0
01/08:00pm 32.8 28.0 -2.8 10 16.7 SSE 13 17 7 9 1007.8 1006.4 0.0
01/07:30pm 34.8 29.2 -2.7 9 17.8 SSE 17 24 9 13 1007.7 1006.3 0.0
01/07:00pm 36.1 29.9 -3.3 8 18.8 SSE 20 33 11 18 1007.5 1006.1 0.0
01/06:30pm 36.9 30.0 -2.7 8 19.1 SSE 24 33 13 18 1007.2 1005.8 0.0
01/06:00pm 37.6 30.8 -2.2 8 19.5 SSE 24 35 13 19 1007.1 1005.7 0.0
01/05:30pm 38.5 32.5 -1.6 8 19.9 SE 20 35 11 19 1006.9 1005.5 0.0
01/05:00pm 38.5 31.5 -3.4 7 20.3 SSE 24 33 13 18 1006.9 1005.5 0.0
01/04:30pm 38.8 31.5 -3.2 7 20.4 SSE 26 37 14 20 1007.0 1005.6 0.0
01/04:00pm 38.6 30.9 -3.3 7 20.3 SSE 28 41 15 22 1007.0 1005.6 0.0
01/03:30pm 38.9 32.9 -3.1 7 20.4 SSE 19 32 10 17 1007.2 1005.8 0.0
01/03:00pm 38.5 31.5 -3.4 7 20.3 SE 24 33 13 18 1007.4 1006.0 0.0
01/02:30pm 38.6 32.4 -3.3 7 20.3 SE 20 39 11 21 1007.5 1006.1 0.0
01/02:00pm 37.7 31.4 -3.9 7 19.8 SSE 20 32 11 17 1007.9 1006.5 0.0
01/01:30pm 37.8 31.5 -3.9 7 19.9 SE 20 37 11 20 1008.2 1006.9 0.0
01/01:00pm 37.0 31.4 -2.7 8 19.2 SE 17 32 9 17 1008.8 1007.5 0.0
01/12:30pm 37.1 31.0 -2.6 8 19.2 SE 20 33 11 18 1009.1 1007.8 0.0
01/12:00pm 36.0 29.4 -3.4 8 18.7 SSE 22 32 12 17 1009.4 1008.1 0.0
01/11:30am 35.8 30.3 -2.0 9 18.3 ESE 17 24 9 13 1009.7 1008.4 0.0
01/11:00am 35.4 29.5 -2.3 9 18.2 ESE 19 28 10 15 1009.9 1008.6 0.0
01/10:30am 34.5 27.9 -2.9 9 17.7 ESE 22 30 12 16 1010.0 1008.7 0.0
01/10:00am 33.6 27.3 -0.9 11 16.8 ESE 22 30 12 16 1010.0 1008.7 0.0
01/09:30am 32.1 26.5 0.2 13 15.6 SE 19 24 10 13 1010.1 1008.7 0.0
01/09:00am 30.2 25.2 1.6 16 14.2 SE 17 22 9 12 1009.9 1008.5 0.0
01/08:30am 28.0 23.9 2.2 19 12.7 SE 13 17 7 9 1009.7 1008.3 0.0
01/08:00am 26.5 23.2 2.4 21 11.8 SE 9 13 5 7 1009.5 1008.1 0.0
01/07:30am 23.0 20.9 4.0 29 9.4 ESE 4 6 2 3 1009.2 1007.8 0.0
01/07:00am 20.2 17.6 4.3 35 7.7 SE 7 7 4 4 1008.9 1007.5 0.0
01/06:30am 18.8 16.2 3.0 35 7.4 SE 6 7 3 4 1008.4 1007.0 0.0
01/06:00am 19.5 17.2 2.8 33 7.9 SE 4 6 2 3 1008.2 1006.8 0.0
01/05:30am 19.3 17.1 3.1 34 7.6 SE 4 6 2 3 1008.0 1006.6 0.0
01/05:00am 20.2 17.3 2.5 31 8.3 ESE 7 7 4 4 1007.8 1006.4 0.0
01/04:30am 20.8 17.9 2.6 30 8.6 ESE 7 7 4 4 1007.8 1006.4 0.0
01/04:00am 21.2 18.4 3.0 30 8.7 ESE 7 7 4 4 1007.7 1006.3 0.0
01/03:30am 21.4 18.8 3.1 30 8.8 SE 6 7 3 4 1007.5 1006.1 0.0
01/03:00am 21.8 19.0 3.0 29 9.0 SE 7 9 4 5 1007.4 1006.0 0.0
01/02:30am 22.7 19.5 2.8 27 9.6 SE 9 11 5 6 1007.4 1006.0 0.0
01/02:00am 22.8 19.3 3.4 28 9.5 SE 11 13 6 7 1007.4 1006.0 0.0
01/01:30am 23.5 20.4 3.4 27 9.8 SE 9 9 5 5 1007.6 1006.2 0.0
01/01:00am 23.8 20.7 3.7 27 9.9 SE 9 11 5 6 1007.9 1006.5 0.0
01/12:30am 24.9 21.5 4.1 26 10.4 SE 11 13 6 7 1008.1 1006.7 0.0
01/12:00am 26.5 23.0 3.7 23 11.5 SE 11 13 6 7 1008.3 1006.9 0.0
 
Date/Time
EST
Temp
°C
App
Temp
°C
Dew
Point
Rel
Hum
%
Delta-T
°C
Wind Press
QNH
hPa
Press
MSL
hPa
Rain
since 9 am
mm
Dir
 
Spd
km/h
Gust
km/h
Spd
kts
Gust
kts
31/11:30pm 28.5 24.2 3.4 20 12.7 SE 15 19 8 10 1008.4 1007.0 0.0
31/11:00pm 29.1 24.9 3.9 20 12.9 SSE 15 17 8 9 1008.3 1006.9 0.0
31/10:30pm 29.3 25.1 4.0 20 13.0 SSE 15 17 8 9 1008.2 1006.8 0.0
31/10:00pm 27.5 23.8 4.5 23 11.8 SSE 13 17 7 9 1008.0 1006.6 0.0
31/09:30pm 28.4 25.4 4.0 21 12.5 SSE 9 11 5 6 1007.6 1006.2 0.0
31/09:00pm 29.4 26.4 4.1 20 13.1 SSE 9 9 5 5 1007.5 1006.1 0.0
31/08:30pm 30.1 27.1 4.0 19 13.5 SE 9 9 5 5 1007.3 1005.9 0.0
31/08:00pm 32.5 28.8 2.5 15 15.4 SE 11 13 6 7 1006.9 1005.5 0.0
31/07:30pm 34.9 30.8 2.4 13 16.8 SE 13 19 7 10 1006.4 1005.0 0.0
31/07:00pm 36.5 31.7 2.5 12 17.8 SE 17 24 9 13 1005.8 1004.5 0.0
31/06:30pm 37.5 32.0 2.1 11 18.5 SSE 20 26 11 14 1005.5 1004.1 0.0
31/06:00pm 38.2 33.2 1.3 10 19.2 S 17 28 9 15 1005.3 1003.9 0.0
31/05:30pm 38.8 33.7 3.1 11 19.1 S 19 30 10 16 1005.1 1003.7 0.0
31/05:00pm 39.0 33.4 3.2 11 19.2 S 22 35 12 19 1005.1 1003.7 0.0
31/04:30pm 39.2 33.9 2.0 10 19.6 SSW 19 26 10 14 1005.2 1003.8 0.0
31/04:00pm 39.5 35.3 3.6 11 19.4 S 15 35 8 19 1005.4 1004.0 0.0
31/03:30pm 38.9 34.6 3.1 11 19.1 SE 15 26 8 14 1005.6 1004.2 0.0
31/03:00pm 38.3 34.0 1.3 10 19.2 S 13 20 7 11 1005.8 1004.5 0.0
31/02:30pm 39.1 35.2 3.3 11 19.2 S 13 26 7 14 1006.4 1005.0 0.0
31/02:00pm 39.1 33.5 3.3 11 19.3 S 22 32 12 17 1006.7 1005.3 0.0
31/01:30pm 39.0 33.4 3.2 11 19.2 SE 22 32 12 17 1007.0 1005.6 0.0
31/01:00pm 38.0 33.2 2.5 11 18.7 SE 17 30 9 16 1007.4 1006.0 0.0
31/12:30pm 38.6 33.5 2.9 11 19.0 SE 19 28 10 15 1007.6 1006.2 0.0
31/12:00pm 38.0 32.4 3.7 12 18.4 SE 22 32 12 17 1007.8 1006.4 0.0
31/11:30am 37.7 31.9 2.2 11 18.6 ESE 22 32 12 17 1008.2 1006.8 0.0
31/11:00am 36.8 30.1 1.5 11 18.2 SE 26 35 14 19 1008.5 1007.1 0.0
31/10:30am 35.5 29.0 0.6 11 17.6 ESE 24 33 13 18 1008.7 1007.3 0.0
31/10:00am 34.8 28.1 1.2 12 17.1 ESE 26 35 14 19 1008.8 1007.4 0.0
31/09:30am 33.5 26.8 1.3 13 16.2 ESE 26 33 14 18 1008.9 1007.5 0.0
31/09:00am 31.1 24.9 2.3 16 14.6 SE 24 32 13 17 1008.7 1007.3 0.0
31/08:30am 29.6 24.0 3.6 19 13.3 SE 22 28 12 15 1008.6 1007.2 0.0
31/08:00am 27.5 23.5 5.1 24 11.6 SE 15 20 8 11 1008.6 1007.2 0.0
31/07:30am 25.0 22.3 7.2 32 9.4 SE 11 15 6 8 1008.5 1007.1 0.0
31/07:00am 22.7 20.4 7.3 37 8.1 SE 9 11 5 6 1008.2 1006.8 0.0
31/06:30am 21.7 18.9 6.8 38 7.7 SE 11 11 6 6 1007.7 1006.3 0.0
31/06:00am 23.3 20.4 6.6 34 8.7 SE 11 13 6 7 1007.2 1005.8 0.0
31/05:30am 24.6 21.0 6.8 32 9.3 SE 15 19 8 10 1007.1 1005.7 0.0
31/05:00am 23.8 20.8 7.8 36 8.5 SE 13 17 7 9 1006.8 1005.4 0.0
31/04:30am 20.8 18.5 7.4 42 6.9 SE 9 11 5 6 1006.5 1005.1 0.0
31/04:00am 21.7 19.9 7.2 39 7.5 SE 6 7 3 4 1006.4 1005.0 0.0
31/03:30am 21.5 19.5 7.0 39 7.5 SE 7 7 4 4 1006.2 1004.8 0.0
31/03:00am 22.7 20.7 6.9 36 8.2 SE 7 7 4 4 1006.3 1004.9 0.0
31/02:30am 23.4 21.3 6.7 34 8.7 SE 7 9 4 5 1006.2 1004.8 0.0
31/02:00am 23.8 21.1 7.4 35 8.7 SSE 11 13 6 7 1006.0 1004.7 0.0
31/01:30am 23.5 20.9 7.6 36 8.4 SSE 11 13 6 7 1006.3 1004.9 0.0
31/01:00am 23.8 21.4 7.0 34 8.8 SSE 9 11 5 6 1006.5 1005.1 0.0
31/12:30am 24.1 22.0 6.8 33 9.0 SSE 7 9 4 5 1006.7 1005.3 0.0
31/12:00am 25.5 23.9 6.2 29 10.1 SSE 4 4 2 2 1006.8 1005.4 0.0
 
Date/Time
EST
Temp
°C
App
Temp
°C
Dew
Point
Rel
Hum
%
Delta-T
°C
Wind Press
QNH
hPa
Press
MSL
hPa
Rain
since 9 am
mm
Dir
 
Spd
km/h
Gust
km/h
Spd
kts
Gust
kts
30/11:30pm 26.2 25.0 6.3 28 10.4 SSE 2 4 1 2 1006.8 1005.4 0.0
30/11:00pm 26.4 25.2 6.4 28 10.6 SSE 2 4 1 2 1006.6 1005.2 0.0
30/10:30pm 27.4 25.3 5.6 25 11.4 SSE 6 7 3 4 1006.5 1005.1 0.0
30/10:00pm 27.8 25.6 5.4 24 11.7 SSE 6 6 3 3 1006.2 1004.8 0.0
30/09:30pm 28.4 25.8 5.9 24 11.9 SSE 9 9 5 5 1005.7 1004.4 0.0
30/09:00pm 29.3 26.9 5.4 22 12.6 SSE 7 9 4 5 1005.4 1004.0 0.0
30/08:30pm 30.5 27.4 5.7 21 13.2 SE 11 13 6 7 1005.3 1003.9 0.0
30/08:00pm 32.1 29.2 4.8 18 14.5 SE 9 11 5 6 1005.1 1003.7 0.0
30/07:30pm 34.9 30.8 4.4 15 16.3 SSE 15 20 8 11 1004.8 1003.4 0.0
30/07:00pm 36.4 31.8 5.6 15 16.9 SE 19 24 10 13 1004.6 1003.2 0.0
30/06:30pm 37.3 33.2 4.3 13 17.8 SSE 15 26 8 14 1004.3 1002.9 0.0
30/06:00pm 37.5 33.8 4.4 13 18.0 SSE 13 20 7 11 1004.3 1002.9 0.0
30/05:30pm 38.7 34.7 3.0 11 19.0 SSW 13 26 7 14 1004.3 1002.9 0.0
30/05:00pm 38.6 34.8 4.1 12 18.7 S 13 20 7 11 1004.2 1002.8 0.0
30/04:30pm 38.6 34.5 4.1 12 18.7 S 15 24 8 13 1004.3 1002.9 0.0
30/04:00pm 38.9 33.9 4.4 12 18.9 SW 20 28 11 15 1004.5 1003.1 0.0
30/03:30pm 39.0 34.5 4.4 12 18.9 SSW 17 28 9 15 1004.6 1003.2 0.0
30/03:00pm 39.0 34.9 4.4 12 18.9 SW 15 30 8 16 1004.9 1003.5 0.0
30/02:30pm 38.5 34.9 5.2 13 18.3 SSW 13 26 7 14 1005.4 1004.0 0.0
30/02:00pm 38.6 33.7 5.3 13 18.4 SW 20 33 11 18 1005.6 1004.2 0.0
30/01:30pm 38.5 35.6 6.3 14 18.0 SSW 11 20 6 11 1006.0 1004.7 0.0
30/01:00pm 37.3 34.9 5.3 14 17.6 WSW 7 15 4 8 1006.5 1005.1 0.0
30/12:30pm 38.1 33.8 7.0 15 17.6 SSE 19 30 10 16 1006.8 1005.4 0.0
30/12:00pm 37.9 33.9 6.8 15 17.5 SSE 17 28 9 15 1007.3 1005.9 0.0
30/11:30am 36.9 32.2 5.0 14 17.4 SE 19 28 10 15 1007.4 1006.0 0.0
30/11:00am 36.4 32.6 7.4 17 16.4 ESE 17 37 9 20 1007.6 1006.2 0.0
30/10:30am 35.6 32.2 7.6 18 15.8 ESE 15 22 8 12 1007.7 1006.3 0.0
30/10:00am 33.7 30.8 8.3 21 14.4 ESE 13 22 7 12 1007.8 1006.4 0.0
30/09:30am 32.6 30.2 8.8 23 13.5 SE 11 19 6 10 1007.7 1006.3 0.0
30/09:00am 30.2 27.9 9.1 27 11.9 SSE 11 15 6 8 1007.6 1006.2 0.0
30/08:30am 28.6 26.4 9.3 30 10.8 SSE 11 15 6 8 1007.4 1006.0 0.0
30/08:00am 26.9 25.3 8.8 32 10.0 S 7 11 4 6 1007.3 1005.9 0.0
30/07:30am 24.2 22.8 9.4 39 8.1 S 7 9 4 5 1007.1 1005.7 0.0

Other Formats:

Comma delimited format used in spreadsheet applications
http://www.bom.gov.au/fwo/IDQ60801/IDQ60801.94344.axf

JavaScript Object Notation format (JSON) in row-major order
http://www.bom.gov.au/fwo/IDQ60801/IDQ60801.94344.json